Time;durP1;ratioP1;P1;durP2;ratioP2;P2;SDS_P1;SDS_P2;PMS_P1;PMS_P2;Temp;Humidity;BMP_temperature;BMP_pressure;BME280_temperature;BME280_humidity;BME280_pressure;Samples;Min_cycle;Max_cycle;Signal;HPM_P1;HPM_P2
2023/02/07 00:01:27;;;;;;;19.05;12.55;;;-1.70;1.00;;;;;;6135191;23;20040;-81
2023/02/07 00:04:14;;;;;;;21.48;13.00;;;-1.80;1.00;;;;;;6155788;23;20306;-82
2023/02/07 00:07:11;;;;;;;21.90;12.80;;;-1.80;99.90;;;;;;6156912;23;20155;-82
2023/02/07 00:09:58;;;;;;;21.45;12.02;;;-1.90;1.00;;;;;;6136038;23;20021;-82
2023/02/07 00:12:45;;;;;;;24.38;13.65;;;-2.00;99.90;;;;;;6155775;23;20026;-86
2023/02/07 00:15:35;;;;;;;21.50;13.05;;;-2.00;99.90;;;;;;6156024;23;20035;-82
2023/02/07 00:18:23;;;;;;;22.30;12.50;;;-2.10;1.00;;;;;;6155999;23;20103;-80
2023/02/07 00:21:22;;;;;;;22.40;12.68;;;-2.10;99.90;;;;;;6156399;23;20032;-80
2023/02/07 00:24:12;;;;;;;22.75;13.10;;;-2.20;99.90;;;;;;6137470;23;20104;-81
2023/02/07 00:27:02;;;;;;;24.30;12.82;;;-2.30;99.90;;;;;;6133564;23;20025;-82
2023/02/07 00:29:49;;;;;;;22.33;12.75;;;-2.30;1.30;;;;;;6154770;23;20029;-82
2023/02/07 00:32:40;;;;;;;24.05;13.23;;;-2.40;1.00;;;;;;6158573;23;20448;-84
2023/02/07 00:35:27;;;;;;;23.52;13.57;;;-2.40;1.00;;;;;;6134759;23;20025;-82
2023/02/07 00:38:16;;;;;;;24.77;14.00;;;-2.50;1.00;;;;;;6154271;23;20029;-83
2023/02/07 00:41:04;;;;;;;20.73;11.48;;;-2.60;99.90;;;;;;6154638;23;20029;-80
2023/02/07 00:43:51;;;;;;;20.85;12.45;;;-2.60;99.90;;;;;;6154303;23;20025;-81
2023/02/07 00:46:38;;;;;;;23.83;12.30;;;-2.60;99.90;;;;;;6154353;23;20123;-82
2023/02/07 00:49:26;;;;;;;21.48;12.68;;;-2.70;99.90;;;;;;6155070;23;20032;-80
2023/02/07 00:52:13;;;;;;;22.35;12.70;;;-2.70;99.90;;;;;;6154452;23;20025;-84
2023/02/07 00:55:00;;;;;;;20.23;12.13;;;-2.70;53.00;;;;;;6155485;23;20030;-83
2023/02/07 00:57:47;;;;;;;24.77;14.07;;;-2.70;2.80;;;;;;6134238;23;20092;-84
2023/02/07 01:00:37;;;;;;;24.08;13.55;;;-2.70;1.00;;;;;;6154733;23;20034;-83
2023/02/07 01:03:24;;;;;;;21.35;12.88;;;-2.80;1.00;;;;;;6154437;23;20025;-81
2023/02/07 01:06:11;;;;;;;27.88;15.07;;;-2.80;1.00;;;;;;6131306;23;20039;-80
2023/02/07 01:09:00;;;;;;;22.88;13.60;;;-2.80;1.00;;;;;;6133650;23;20021;-82
2023/02/07 01:11:47;;;;;;;25.42;14.68;;;-2.90;1.00;;;;;;6154884;23;20026;-82
2023/02/07 01:14:39;;;;;;;26.55;14.90;;;-3.00;1.00;;;;;;6154729;23;20097;-82
2023/02/07 01:17:27;;;;;;;25.92;14.70;;;-3.00;1.00;;;;;;6133463;23;20044;-82
2023/02/07 01:20:14;;;;;;;27.73;15.05;;;-3.00;12.30;;;;;;6134387;23;20436;-82
2023/02/07 01:23:02;;;;;;;29.08;15.68;;;-3.00;28.70;;;;;;6152892;23;20471;-82
2023/02/07 01:25:49;;;;;;;32.58;16.77;;;-3.00;64.30;;;;;;6133010;23;20155;-81
2023/02/07 01:28:36;;;;;;;29.88;16.08;;;-3.00;50.20;;;;;;6153407;23;20055;-81
2023/02/07 01:31:24;;;;;;;29.67;16.23;;;-3.10;69.80;;;;;;6153309;23;20048;-83
2023/02/07 01:34:12;;;;;;;31.05;15.95;;;-3.10;99.90;;;;;;6152613;23;20026;-82
2023/02/07 01:37:00;;;;;;;31.73;16.60;;;-3.10;99.90;;;;;;6132350;23;20021;-81
2023/02/07 01:39:47;;;;;;;36.80;17.65;;;-3.10;99.90;;;;;;6154222;23;20030;-80
2023/02/07 01:42:35;;;;;;;30.55;16.35;;;-3.10;99.90;;;;;;6153847;23;20123;-83
2023/02/07 01:45:36;;;;;;;32.08;17.17;;;-3.10;99.90;;;;;;6153459;23;20049;-82
2023/02/07 01:48:30;;;;;;;35.65;17.92;;;-3.20;99.90;;;;;;6153475;23;20409;-81
2023/02/07 01:51:18;;;;;;;33.55;18.42;;;-3.20;1.00;;;;;;6153978;23;20339;-81
2023/02/07 01:54:08;;;;;;;38.50;20.10;;;-3.10;1.00;;;;;;6155502;23;20092;-83
2023/02/07 01:57:00;;;;;;;37.63;19.88;;;-3.00;1.00;;;;;;6154291;23;20034;-81
2023/02/07 01:59:50;;;;;;;35.35;19.77;;;-2.90;90.20;;;;;;6133181;23;20064;-81
2023/02/07 02:02:37;;;;;;;35.10;18.70;;;-2.70;1.00;;;;;;6154013;23;20104;-83
2023/02/07 02:05:28;;;;;;;37.50;18.10;;;-2.70;1.00;;;;;;6156199;23;20025;-82
2023/02/07 02:08:15;;;;;;;34.50;19.02;;;-2.60;1.00;;;;;;6133818;23;20025;-82
2023/02/07 02:11:30;;;;;;;31.02;17.80;;;-2.60;1.00;;;;;;6152646;23;20076;-80
2023/02/07 02:14:38;;;;;;;33.92;18.35;;;-2.50;1.00;;;;;;6132920;23;20133;-82
2023/02/07 02:17:40;;;;;;;31.70;18.58;;;-2.50;99.90;;;;;;6152170;23;20045;-81
2023/02/07 02:20:48;;;;;;;32.45;18.27;;;-2.40;99.90;;;;;;6153200;23;20025;-81
2023/02/07 02:24:06;;;;;;;32.60;16.98;;;-2.40;99.90;;;;;;6155082;23;20416;-81
2023/02/07 02:27:05;;;;;;;30.60;16.80;;;-2.40;99.90;;;;;;6155103;23;20049;-82
2023/02/07 02:30:01;;;;;;;31.30;16.27;;;-2.40;99.90;;;;;;6155896;23;20112;-82
2023/02/07 02:33:00;;;;;;;32.05;17.35;;;-2.60;12.40;;;;;;6153107;23;20049;-82
2023/02/07 02:35:53;;;;;;;34.22;18.08;;;-2.70;1.00;;;;;;6155982;23;20084;-81
2023/02/07 02:39:13;;;;;;;31.80;17.95;;;-2.80;1.00;;;;;;6155481;23;20109;-82
2023/02/07 02:42:18;;;;;;;32.53;18.98;;;-2.90;1.00;;;;;;6157247;23;20397;-83
2023/02/07 02:45:16;;;;;;;33.05;19.48;;;-3.00;1.00;;;;;;6155254;23;20099;-81
2023/02/07 02:48:07;;;;;;;38.45;18.13;;;-3.00;1.00;;;;;;6155664;23;20036;-83
2023/02/07 02:50:55;;;;;;;35.58;19.13;;;-3.10;1.00;;;;;;6156290;23;20026;-80
2023/02/07 02:53:56;;;;;;;33.00;18.65;;;-3.10;1.00;;;;;;6156579;23;20029;-82
2023/02/07 02:56:43;;;;;;;31.80;18.83;;;-3.20;1.00;;;;;;6155536;23;20365;-81
2023/02/07 02:59:51;;;;;;;33.15;19.80;;;-3.20;99.90;;;;;;6135615;23;20336;-83
2023/02/07 03:02:38;;;;;;;36.60;18.30;;;-3.20;99.90;;;;;;6156926;23;20037;-81
2023/02/07 03:05:47;;;;;;;35.35;18.95;;;-3.30;99.90;;;;;;6135414;23;20029;-81
2023/02/07 03:08:53;;;;;;;29.92;17.63;;;-3.30;99.90;;;;;;6154647;23;20358;-82
2023/02/07 03:12:14;;;;;;;30.08;19.27;;;-3.30;99.90;;;;;;6166466;23;20057;-83
2023/02/07 03:15:05;;;;;;;33.75;17.88;;;-3.40;99.90;;;;;;6131317;23;20135;-82
2023/02/07 03:17:52;;;;;;;32.17;18.08;;;-3.40;99.90;;;;;;6155930;23;20025;-81
2023/02/07 03:20:46;;;;;;;30.45;18.52;;;-3.50;99.90;;;;;;6134841;23;20053;-82
2023/02/07 03:23:37;;;;;;;30.63;18.17;;;-3.50;99.90;;;;;;6156855;23;20196;-82
2023/02/07 03:26:26;;;;;;;33.30;18.73;;;-3.60;99.90;;;;;;6137370;23;20065;-84
2023/02/07 03:29:16;;;;;;;33.15;18.17;;;-3.60;99.90;;;;;;6156843;23;20029;-81
2023/02/07 03:32:09;;;;;;;36.03;19.30;;;-3.60;99.90;;;;;;6157726;23;20077;-82
2023/02/07 03:35:12;;;;;;;;;;;-3.60;99.90;;;;;;6156343;23;20029;-81
2023/02/07 03:38:02;;;;;;;38.92;19.25;;;-3.60;99.90;;;;;;6155965;23;19971;-81
2023/02/07 03:40:57;;;;;;;36.53;20.17;;;-3.70;99.90;;;;;;6133483;23;20025;-82
2023/02/07 03:43:44;;;;;;;33.13;19.90;;;-3.70;99.90;;;;;;6154430;23;20025;-81
2023/02/07 03:46:36;;;;;;;35.90;20.15;;;-3.80;99.90;;;;;;6154784;23;20080;-82
2023/02/07 03:49:24;;;;;;;28.67;16.35;;;-3.80;99.90;;;;;;6156225;23;20399;-81
2023/02/07 03:52:11;;;;;;;37.53;20.85;;;-3.80;99.90;;;;;;6156211;23;20118;-81
2023/02/07 03:54:58;;;;;;;37.92;20.40;;;-3.90;99.90;;;;;;6154515;23;20029;-81
2023/02/07 03:57:45;;;;;;;42.38;20.88;;;-3.90;1.00;;;;;;6138083;23;20025;-82
2023/02/07 04:00:33;;;;;;;40.70;22.63;;;-4.00;1.00;;;;;;6156709;23;20025;-81
2023/02/07 04:03:22;;;;;;;39.60;22.50;;;-4.00;1.00;;;;;;6155392;23;20279;-82
2023/02/07 04:06:12;;;;;;;40.25;21.73;;;-4.10;1.00;;;;;;6154086;23;20026;-81
2023/02/07 04:08:59;;;;;;;40.97;21.27;;;-4.20;1.00;;;;;;6153754;23;20068;-80
2023/02/07 04:11:50;;;;;;;36.70;21.92;;;-4.20;99.90;;;;;;6157279;23;20029;-82
2023/02/07 04:14:37;;;;;;;43.40;24.45;;;-4.20;99.90;;;;;;6154400;23;20081;-80
2023/02/07 04:17:24;;;;;;;42.90;23.35;;;-4.20;99.90;;;;;;6154780;23;20033;-81
2023/02/07 04:20:12;;;;;;;45.17;25.20;;;-4.20;99.90;;;;;;6161628;23;20057;-81
2023/02/07 04:22:59;;;;;;;42.17;24.40;;;-4.20;1.00;;;;;;6162941;23;20029;-80
2023/02/07 04:25:46;;;;;;;47.95;27.13;;;-4.30;1.00;;;;;;6165064;23;20025;-81
2023/02/07 04:28:33;;;;;;;47.25;27.00;;;-4.20;16.70;;;;;;6165132;23;20106;-81
2023/02/07 04:31:23;;;;;;;49.10;28.10;;;-4.30;99.00;;;;;;6158827;23;20417;-82
2023/02/07 04:34:11;;;;;;;51.50;27.52;;;-4.40;99.90;;;;;;6162105;23;20041;-79
2023/02/07 04:37:02;;;;;;;53.83;28.58;;;-4.40;99.90;;;;;;6156786;23;20039;-82
2023/02/07 04:39:49;;;;;;;46.90;26.70;;;-4.30;99.90;;;;;;6134043;23;20049;-81
2023/02/07 04:42:36;;;;;;;52.20;28.83;;;-4.30;99.90;;;;;;6156865;23;20029;-81
2023/02/07 04:45:23;;;;;;;56.85;28.27;;;-4.40;99.90;;;;;;6142463;23;20053;-81
2023/02/07 04:48:10;;;;;;;54.42;29.88;;;-4.40;1.00;;;;;;6158469;23;20029;-82
2023/02/07 04:50:57;;;;;;;51.70;27.08;;;-4.50;62.50;;;;;;6162781;23;20084;-82
2023/02/07 04:53:46;;;;;;;57.63;28.63;;;-4.50;54.20;;;;;;6161912;23;20037;-80
2023/02/07 04:56:34;;;;;;;59.75;28.67;;;-4.60;99.90;;;;;;6155494;23;20111;-81
2023/02/07 04:59:22;;;;;;;60.45;30.17;;;-4.60;99.90;;;;;;6135144;23;20033;-81
2023/02/07 05:02:59;;;;;;;56.20;30.05;;;-4.60;99.90;;;;;;6156104;23;20029;-80
2023/02/07 05:05:49;;;;;;;57.20;29.15;;;-4.70;99.90;;;;;;6154890;23;20052;-80
2023/02/07 05:08:36;;;;;;;57.53;30.27;;;-4.60;47.50;;;;;;6155401;23;20040;-82
2023/02/07 05:11:26;;;;;;;57.10;32.45;;;-4.50;14.70;;;;;;6155275;23;20096;-82
2023/02/07 05:14:15;;;;;;;57.10;30.40;;;-4.50;8.10;;;;;;6134123;23;20041;-81
2023/02/07 05:17:03;;;;;;;57.05;30.60;;;-4.50;1.00;;;;;;6153435;23;20348;-80
2023/02/07 05:19:50;;;;;;;55.60;30.73;;;-4.60;1.00;;;;;;6132779;23;20029;-80
2023/02/07 05:22:37;;;;;;;54.50;29.30;;;-4.80;99.90;;;;;;6152705;23;20041;-80
2023/02/07 05:25:24;;;;;;;61.33;32.60;;;-4.90;99.90;;;;;;6153576;23;20104;-80
2023/02/07 05:28:11;;;;;;;49.05;28.02;;;-5.10;99.90;;;;;;6152934;23;20492;-82
2023/02/07 05:30:58;;;;;;;54.35;28.90;;;-5.20;1.00;;;;;;6154231;23;20021;-81
2023/02/07 05:33:48;;;;;;;55.15;28.85;;;-5.20;1.00;;;;;;6161927;23;20088;-81
2023/02/07 05:36:35;;;;;;;53.22;28.70;;;-5.20;99.90;;;;;;6154181;23;20037;-81
2023/02/07 05:39:27;;;;;;;62.80;32.05;;;-5.20;99.90;;;;;;6152931;23;20100;-82
2023/02/07 05:42:18;;;;;;;67.80;33.88;;;-5.10;1.00;;;;;;6131853;23;20353;-81
2023/02/07 05:45:06;;;;;;;63.33;33.92;;;-5.10;1.00;;;;;;6154036;23;20029;-81
2023/02/07 05:47:54;;;;;;;65.40;33.75;;;-5.00;99.90;;;;;;6132022;23;20420;-82
2023/02/07 05:50:44;;;;;;;65.32;32.97;;;-4.90;75.70;;;;;;6155239;23;20089;-80
2023/02/07 05:53:31;;;;;;;63.40;32.80;;;-4.90;1.00;;;;;;6153163;23;20056;-80
2023/02/07 05:56:20;;;;;;;64.53;33.42;;;-4.90;11.90;;;;;;6156022;23;20037;-81
2023/02/07 05:59:07;;;;;;;66.22;32.03;;;-4.80;1.00;;;;;;6155156;23;20350;-80
2023/02/07 06:01:57;;;;;;;62.42;33.95;;;-4.80;99.90;;;;;;6153702;23;20405;-80
2023/02/07 06:04:44;;;;;;;61.33;32.20;;;-4.80;99.90;;;;;;6163743;23;20077;-80
2023/02/07 06:07:32;;;;;;;60.55;32.33;;;-4.70;1.00;;;;;;6166207;23;20032;-79
2023/02/07 06:10:19;;;;;;;57.13;30.77;;;-4.70;1.00;;;;;;6169474;23;20103;-81
2023/02/07 06:13:09;;;;;;;60.38;30.42;;;-4.70;99.90;;;;;;6172241;23;20074;-80
2023/02/07 06:15:56;;;;;;;55.85;29.98;;;-4.70;99.90;;;;;;6157773;23;20019;-82
2023/02/07 06:18:45;;;;;;;63.55;29.23;;;-4.70;70.30;;;;;;6188572;23;20036;-83
2023/02/07 06:21:32;;;;;;;59.20;29.20;;;-4.60;1.00;;;;;;6207259;23;20047;-84
2023/02/07 06:24:32;;;;;;;51.13;28.40;;;-4.60;99.90;;;;;;6180919;23;20025;-85
2023/02/07 06:27:22;;;;;;;58.13;27.95;;;-4.70;99.90;;;;;;6193020;23;20052;-81
2023/02/07 06:30:11;;;;;;;52.70;30.20;;;-4.70;56.40;;;;;;6188359;23;20032;-80
2023/02/07 06:33:00;;;;;;;49.40;26.73;;;-4.90;1.00;;;;;;6186353;23;20049;-80
2023/02/07 06:35:47;;;;;;;51.33;28.05;;;-5.20;1.00;;;;;;6188540;23;20040;-83
2023/02/07 06:38:35;;;;;;;53.70;27.50;;;-5.40;1.00;;;;;;6165475;23;20080;-82
2023/02/07 06:41:24;;;;;;;56.75;28.77;;;-5.50;1.00;;;;;;6185941;23;20365;-81
2023/02/07 06:44:11;;;;;;;53.83;28.00;;;-5.60;99.90;;;;;;6165365;23;20052;-81
2023/02/07 06:47:06;;;;;;;49.70;26.17;;;-5.60;1.00;;;;;;6185460;23;20099;-85
2023/02/07 06:54:17;;;;;;;;;;;;;;;;;;;;;
2023/02/07 06:57:28;;;;;;;51.90;27.15;;;-5.40;1.00;;;;;;6068393;23;20030;-84
2023/02/07 07:00:41;;;;;;;55.40;27.60;;;-5.50;99.90;;;;;;6065717;23;20041;-86
2023/02/07 07:03:32;;;;;;;;;;;-5.60;99.90;;;;;;6070600;23;20109;-82
2023/02/07 07:06:34;;;;;;;54.95;27.42;;;-5.60;1.00;;;;;;6067171;23;19925;-83
2023/02/07 07:09:36;;;;;;;;;;;;;;;;;;;;;
2023/02/07 07:12:26;;;;;;;56.58;28.08;;;-5.80;99.90;;;;;;6174760;23;20040;-84
2023/02/07 07:15:22;;;;;;;57.20;27.15;;;-5.80;1.00;;;;;;6168493;23;20316;-83
2023/02/07 07:18:12;;;;;;;57.22;27.23;;;-5.70;1.00;;;;;;6176785;23;20036;-84
2023/02/07 07:24:29;;;;;;;51.85;26.80;;;-5.60;99.90;;;;;;6158359;23;20049;-81
2023/02/07 07:27:20;;;;;;;54.05;27.92;;;-5.60;99.90;;;;;;6214549;23;20024;-85
2023/02/07 07:30:18;;;;;;;56.33;27.63;;;-5.30;1.00;;;;;;6197581;23;20079;-79
2023/02/07 07:33:32;;;;;;;55.40;26.63;;;-5.10;10.10;;;;;;6198986;23;20035;-80
2023/02/07 07:36:41;;;;;;;52.13;28.02;;;-4.80;99.90;;;;;;6198220;23;20031;-81
2023/02/07 07:39:43;;;;;;;51.75;27.27;;;-4.30;1.00;;;;;;6186333;23;20162;-82
2023/02/07 07:42:41;;;;;;;55.95;27.83;;;-3.90;99.90;;;;;;6196996;23;20099;-82
2023/02/07 07:45:40;;;;;;;51.35;27.40;;;-3.40;1.00;;;;;;6216281;23;20484;-82
2023/02/07 07:48:46;;;;;;;50.30;25.77;;;-3.10;99.90;;;;;;6198015;23;20166;-79
2023/02/07 07:51:34;;;;;;;46.42;26.73;;;-3.10;99.90;;;;;;6221769;23;20020;-80
2023/02/07 07:54:47;;;;;;;46.53;25.10;;;-3.00;1.00;;;;;;6217790;23;20056;-80
2023/02/07 07:57:39;;;;;;;37.38;21.40;;;-2.80;99.90;;;;;;6212269;23;20497;-81
2023/02/07 08:00:46;;;;;;;;;;;;;;;;;;;;;
2023/02/07 08:11:56;;;;;;;30.70;16.83;;;-2.20;1.00;;;;;;6125908;23;20006;-79
2023/02/07 08:15:38;;;;;;;28.83;16.73;;;-2.00;98.60;;;;;;6104939;23;20108;-82
2023/02/07 08:19:00;;;;;;;25.17;14.38;;;-1.90;99.90;;;;;;6182821;23;20039;-80
2023/02/07 08:22:23;;;;;;;;;;;;;;;;;;;;;
2023/02/07 08:26:06;;;;;;;;;;;;;;;;;;;;;
2023/02/07 08:29:39;;;;;;;30.08;16.63;;;-1.90;1.00;;;;;;6095576;23;20030;-81
2023/02/07 08:37:08;;;;;;;;;;;;;;;;;;;;;
2023/02/07 09:10:46;;;;;;;30.17;14.20;;;-0.30;1.00;;;;;;6287836;22;25038;-80
2023/02/07 09:14:26;;;;;;;23.90;13.23;;;0.40;1.00;;;;;;6283381;22;20015;-82
2023/02/07 09:28:28;;;;;;;22.17;12.65;;;0.70;1.00;;;;;;6118887;22;1607843;-80
2023/02/07 09:31:48;;;;;;;;;;;;;;;;;;;;;
2023/02/07 09:34:43;;;;;;;22.23;12.73;;;1.80;99.90;;;;;;6146866;23;20815;-81
2023/02/07 09:38:02;;;;;;;;;;;;;;;;;;;;;
2023/02/07 09:41:24;;;;;;;17.00;11.75;;;1.90;99.90;;;;;;6154909;23;20036;-80
2023/02/07 09:49:10;;;;;;;;;;;;;;;;;;;;;
2023/02/07 11:32:43;;;;;;;;;;;;;;;;;;;;;
2023/02/07 15:12:13;;;;;;;14.50;6.30;;;8.80;1.00;;;;;;6115674;22;20030;-83
2023/02/07 15:16:21;;;;;;;11.30;6.60;;;7.80;1.00;;;;;;5962132;23;20032;-84
2023/02/07 15:19:22;;;;;;;10.32;6.63;;;7.00;1.00;;;;;;5965180;23;20253;-89
2023/02/07 15:22:27;;;;;;;10.38;5.95;;;6.70;1.00;;;;;;5977559;24;20203;-88
2023/02/07 15:25:15;;;;;;;8.32;5.97;;;6.50;1.00;;;;;;5970178;24;20032;-86
2023/02/07 15:28:16;;;;;;;10.38;6.63;;;5.60;1.00;;;;;;5972993;23;20099;-87
2023/02/07 15:31:43;;;;;;;9.88;6.43;;;5.20;1.00;;;;;;5983737;24;20155;-87
2023/02/07 15:34:34;;;;;;;8.07;5.80;;;4.90;1.00;;;;;;5990551;24;20105;-87
2023/02/07 15:37:24;;;;;;;11.63;6.32;;;4.90;1.00;;;;;;5995925;24;20012;-90
2023/02/07 15:40:18;;;;;;;8.98;5.90;;;5.00;1.00;;;;;;5981313;24;20067;-86
2023/02/07 15:43:20;;;;;;;9.70;5.82;;;4.50;1.00;;;;;;5993121;24;20024;-85
2023/02/07 15:46:10;;;;;;;7.97;5.68;;;4.30;1.00;;;;;;5989022;24;20028;-86
2023/02/07 15:48:58;;;;;;;11.38;5.93;;;4.00;1.00;;;;;;5972353;24;20036;-88
2023/02/07 15:51:46;;;;;;;7.93;5.40;;;3.70;1.00;;;;;;6015174;23;20083;-87
2023/02/07 15:54:38;;;;;;;9.02;5.45;;;3.60;1.00;;;;;;6131502;23;20026;-88
2023/02/07 15:57:34;;;;;;;8.23;5.60;;;3.40;1.00;;;;;;6125579;23;20033;-86
2023/02/07 16:00:40;;;;;;;8.25;5.05;;;3.20;1.00;;;;;;6122643;23;20026;-86
2023/02/07 16:03:32;;;;;;;7.10;5.10;;;3.00;1.00;;;;;;6122073;23;20099;-85
2023/02/07 16:06:26;;;;;;;8.07;4.90;;;2.60;1.00;;;;;;6123268;23;20033;-86
2023/02/07 16:09:34;;;;;;;7.80;5.43;;;2.20;1.00;;;;;;6123191;23;20088;-87
2023/02/07 16:12:32;;;;;;;7.78;5.50;;;1.80;1.00;;;;;;6101948;23;20100;-86
2023/02/07 16:15:28;;;;;;;7.63;4.82;;;1.50;1.00;;;;;;6121011;23;20058;-85
2023/02/07 16:18:41;;;;;;;6.78;5.22;;;1.20;1.00;;;;;;6122366;23;20117;-86
2023/02/07 16:21:31;;;;;;;7.95;5.10;;;1.00;1.00;;;;;;6121040;23;20084;-85
2023/02/07 16:24:23;;;;;;;9.25;5.30;;;0.80;1.00;;;;;;6100275;23;20025;-86
2023/02/07 16:27:23;;;;;;;8.32;5.43;;;0.60;1.00;;;;;;6123119;23;20060;-88
2023/02/07 16:30:19;;;;;;;13.10;5.50;;;0.50;1.00;;;;;;6123716;23;20056;-87
2023/02/07 16:33:14;;;;;;;10.30;6.20;;;0.40;1.00;;;;;;6131774;23;20030;-86
2023/02/07 16:36:04;;;;;;;11.63;6.05;;;0.30;1.00;;;;;;6113072;23;20041;-86
2023/02/07 16:38:54;;;;;;;8.70;5.32;;;0.20;1.00;;;;;;6112482;23;20072;-86
2023/02/07 16:41:55;;;;;;;9.82;6.35;;;0.10;1.00;;;;;;6131675;23;20033;-86
2023/02/07 16:44:45;;;;;;;10.23;6.05;;;0.00;1.00;;;;;;6106834;23;20057;-86
2023/02/07 16:47:35;;;;;;;9.93;6.60;;;0.00;1.00;;;;;;6123212;23;20428;-85
2023/02/07 16:50:26;;;;;;;12.27;6.38;;;-0.10;1.00;;;;;;6100214;23;20105;-87
2023/02/07 16:53:13;;;;;;;10.63;6.32;;;-0.10;1.00;;;;;;6127803;23;20030;-90
2023/02/07 16:56:01;;;;;;;11.75;6.57;;;-0.20;1.00;;;;;;6105934;23;20041;-86
2023/02/07 16:58:49;;;;;;;10.32;5.80;;;-0.30;1.00;;;;;;6109719;23;20030;-86
2023/02/07 17:01:36;;;;;;;11.23;5.97;;;-0.30;1.00;;;;;;6104599;23;20042;-85
2023/02/07 17:04:23;;;;;;;12.60;6.80;;;-0.30;1.00;;;;;;6123632;23;20413;-85
2023/02/07 17:07:11;;;;;;;11.18;6.95;;;-0.40;1.00;;;;;;6101142;23;20026;-87
2023/02/07 17:10:01;;;;;;;12.75;7.20;;;-0.40;1.00;;;;;;6121721;23;20036;-86
2023/02/07 17:12:48;;;;;;;12.90;7.30;;;-0.50;1.00;;;;;;6122236;23;20107;-86
2023/02/07 17:15:38;;;;;;;13.15;6.93;;;-0.60;1.00;;;;;;6102659;23;20041;-85
2023/02/07 17:18:27;;;;;;;14.65;6.60;;;-0.70;1.00;;;;;;6101005;23;20033;-86
2023/02/07 17:21:15;;;;;;;10.15;6.22;;;-0.80;1.00;;;;;;6119516;23;20036;-87
2023/02/07 17:24:05;;;;;;;10.82;6.75;;;-0.80;1.00;;;;;;6120775;23;20018;-85
2023/02/07 17:26:55;;;;;;;11.93;6.88;;;-0.90;1.00;;;;;;6121419;23;20037;-87
2023/02/07 17:29:43;;;;;;;17.25;6.95;;;-1.00;1.00;;;;;;6103271;23;20025;-85
2023/02/07 17:32:33;;;;;;;15.77;7.72;;;-0.90;1.00;;;;;;6103400;23;20036;-86
2023/02/07 17:35:20;;;;;;;13.98;7.53;;;-1.00;1.00;;;;;;6103780;23;20048;-87
2023/02/07 17:38:09;;;;;;;23.48;8.85;;;-0.90;1.50;;;;;;6103554;23;20029;-86
2023/02/07 17:40:59;;;;;;;14.52;9.15;;;-1.00;4.00;;;;;;6105029;23;20026;-88
2023/02/07 17:43:47;;;;;;;16.25;9.88;;;-1.00;16.10;;;;;;6106987;23;20030;-86
2023/02/07 17:46:34;;;;;;;17.70;9.43;;;-1.00;8.70;;;;;;6108440;23;20034;-86
2023/02/07 17:49:22;;;;;;;16.85;8.70;;;-1.00;10.80;;;;;;6126773;23;20100;-87
2023/02/07 17:52:13;;;;;;;18.92;9.90;;;-1.00;12.70;;;;;;6126436;23;20584;-86
2023/02/07 17:55:05;;;;;;;14.85;9.45;;;-1.00;14.70;;;;;;6089232;23;20022;-87
2023/02/07 17:57:52;;;;;;;19.15;10.18;;;-1.10;18.00;;;;;;6135370;23;20022;-87
2023/02/07 18:00:40;;;;;;;35.38;16.90;;;-1.10;19.50;;;;;;6134372;23;20036;-89
2023/02/07 18:03:28;;;;;;;19.98;10.55;;;-1.20;22.80;;;;;;6118304;23;20022;-87
2023/02/07 18:06:18;;;;;;;21.23;11.05;;;-1.20;25.60;;;;;;6133521;23;20494;-88
2023/02/07 18:09:12;;;;;;;21.08;11.05;;;-1.30;28.40;;;;;;6124743;23;20034;-86
2023/02/07 18:12:02;;;;;;;19.40;10.13;;;-1.30;33.30;;;;;;6125142;23;20041;-88
2023/02/07 18:14:51;;;;;;;19.83;10.75;;;-1.40;36.10;;;;;;6103805;23;20030;-88
2023/02/07 18:17:38;;;;;;;17.85;10.32;;;-1.50;42.30;;;;;;6125056;23;20058;-87
2023/02/07 18:20:29;;;;;;;20.33;11.35;;;-1.50;49.20;;;;;;6103496;23;20428;-88
2023/02/07 18:23:17;;;;;;;23.35;11.93;;;-1.50;57.00;;;;;;6123748;23;20022;-89
2023/02/07 18:26:05;;;;;;;17.42;11.63;;;-1.50;63.30;;;;;;6126194;23;20033;-85
2023/02/07 18:28:53;;;;;;;21.23;11.95;;;-1.50;70.10;;;;;;6105448;23;20046;-87
2023/02/07 18:31:40;;;;;;;23.25;12.95;;;-1.40;75.10;;;;;;6127797;23;20025;-87
2023/02/07 18:34:27;;;;;;;22.23;13.10;;;-1.50;81.70;;;;;;6118816;23;20030;-84
2023/02/07 18:37:17;;;;;;;23.67;11.82;;;-1.60;86.90;;;;;;6137653;23;20306;-84
2023/02/07 18:40:06;;;;;;;22.60;12.48;;;-1.70;92.50;;;;;;6118554;23;20010;-86
2023/02/07 18:42:54;;;;;;;25.90;12.88;;;-1.70;95.80;;;;;;6145918;23;20026;-88
2023/02/07 18:45:41;;;;;;;27.08;13.25;;;-1.80;98.00;;;;;;6141412;23;20026;-86
2023/02/07 18:48:28;;;;;;;22.90;13.90;;;-1.90;99.90;;;;;;6118416;23;20030;-87
2023/02/07 18:51:18;;;;;;;26.95;14.13;;;-1.90;99.90;;;;;;6137686;23;20022;-88
2023/02/07 18:54:08;;;;;;;22.60;12.50;;;-2.00;99.90;;;;;;6114558;23;20109;-87
2023/02/07 18:56:55;;;;;;;24.90;13.23;;;-2.00;99.90;;;;;;6120185;23;20014;-87
2023/02/07 18:59:43;;;;;;;23.65;12.43;;;-2.10;99.90;;;;;;6119920;23;20033;-86
2023/02/07 19:02:31;;;;;;;23.67;13.20;;;-2.10;99.90;;;;;;6141654;23;20014;-87
2023/02/07 19:05:19;;;;;;;25.33;13.48;;;-2.10;99.90;;;;;;6127543;23;20014;-87
2023/02/07 19:08:09;;;;;;;21.55;12.27;;;-2.10;99.90;;;;;;6121539;23;20022;-88
2023/02/07 19:11:00;;;;;;;26.38;12.68;;;-2.20;99.90;;;;;;6121934;23;20048;-86
2023/02/07 19:13:49;;;;;;;27.98;13.63;;;-2.20;99.90;;;;;;6120227;23;20022;-86
2023/02/07 19:16:37;;;;;;;25.17;12.70;;;-2.20;99.90;;;;;;6127530;23;20022;-86
2023/02/07 19:19:28;;;;;;;25.40;12.48;;;-2.30;99.90;;;;;;6105223;23;20022;-87
2023/02/07 19:22:17;;;;;;;23.88;12.27;;;-2.40;99.90;;;;;;6083659;23;20310;-88
2023/02/07 19:25:23;;;;;;;22.38;12.38;;;-2.30;99.90;;;;;;6130229;23;20022;-88
2023/02/07 19:28:11;;;;;;;20.88;11.95;;;-2.30;99.90;;;;;;6133460;23;20142;-88
2023/02/07 19:31:09;;;;;;;21.27;12.48;;;-2.30;99.90;;;;;;6111932;23;20029;-87
2023/02/07 19:33:58;;;;;;;21.73;12.02;;;-2.30;99.90;;;;;;6132585;23;20077;-88
2023/02/07 19:36:46;;;;;;;23.13;11.93;;;-2.30;99.90;;;;;;6135567;23;20030;-89
2023/02/07 19:39:33;;;;;;;21.63;11.90;;;-2.20;99.90;;;;;;6140073;23;20025;-86
2023/02/07 19:42:24;;;;;;;22.58;11.40;;;-2.30;99.90;;;;;;6128560;23;20084;-85
2023/02/07 19:45:12;;;;;;;21.20;11.68;;;-2.30;99.90;;;;;;6139386;23;20025;-88
2023/02/07 19:48:00;;;;;;;22.75;12.00;;;-2.40;99.90;;;;;;6136081;23;20030;-87
2023/02/07 19:50:56;;;;;;;22.08;12.90;;;-2.50;99.90;;;;;;6135018;23;20068;-86
2023/02/07 19:53:45;;;;;;;30.85;14.00;;;-2.50;99.90;;;;;;6136735;23;20026;-89
2023/02/07 19:56:35;;;;;;;28.50;13.98;;;-2.60;99.90;;;;;;6108092;23;20098;-89
2023/02/07 19:59:31;;;;;;;24.98;13.55;;;-2.70;99.90;;;;;;6106360;23;20084;-87
2023/02/07 20:02:19;;;;;;;29.55;13.65;;;-2.80;99.90;;;;;;6127280;23;20022;-88
2023/02/07 20:05:08;;;;;;;29.83;14.95;;;-2.90;99.90;;;;;;6110509;23;20046;-87
2023/02/07 20:07:57;;;;;;;27.70;13.88;;;-3.00;99.90;;;;;;6108195;23;20053;-89
2023/02/07 20:10:47;;;;;;;24.67;14.20;;;-3.20;99.90;;;;;;6104631;23;20030;-89
2023/02/07 20:13:45;;;;;;;25.98;13.57;;;-3.40;99.90;;;;;;6104268;23;20048;-89
2023/02/07 20:16:36;;;;;;;27.52;14.77;;;-3.50;99.90;;;;;;6103652;23;20030;-89
2023/02/07 20:19:24;;;;;;;30.27;14.02;;;-3.70;99.90;;;;;;6105532;23;20030;-89
2023/02/07 20:22:12;;;;;;;24.77;14.23;;;-3.70;99.90;;;;;;6106309;23;20132;-91
2023/02/07 20:25:06;;;;;;;27.50;14.55;;;-3.80;99.90;;;;;;6105764;23;20036;-88
2023/02/07 20:27:54;;;;;;;;;;;-3.90;99.90;;;;;;6086046;23;20029;-88
2023/02/07 20:30:44;;;;;;;23.95;13.93;;;-4.10;99.90;;;;;;6124921;23;20238;-89
2023/02/07 20:33:38;;;;;;;32.47;16.83;;;-4.10;99.90;;;;;;6105187;23;20096;-89
2023/02/07 20:36:27;;;;;;;24.90;14.60;;;-4.20;99.90;;;;;;6107375;23;20083;-89
2023/02/07 20:39:19;;;;;;;27.33;14.32;;;-4.20;99.90;;;;;;6106404;23;20037;-88
2023/02/07 20:42:14;;;;;;;35.28;16.17;;;-4.30;99.90;;;;;;6127152;23;20022;-89
2023/02/07 20:45:02;;;;;;;26.50;14.43;;;-4.30;99.90;;;;;;6104819;23;20104;-87
2023/02/07 20:47:49;;;;;;;24.85;13.90;;;-4.40;99.90;;;;;;6111362;23;20026;-88
2023/02/07 20:50:39;;;;;;;36.78;14.65;;;-4.40;99.90;;;;;;6130478;23;20475;-88
2023/02/07 20:53:27;;;;;;;25.05;13.82;;;-4.40;99.90;;;;;;6105476;23;20486;-90
2023/02/07 20:56:16;;;;;;;27.05;13.43;;;-4.50;99.90;;;;;;6104260;23;20029;-89
2023/02/07 20:59:05;;;;;;;26.70;13.40;;;-4.50;99.90;;;;;;6087437;23;20054;-90
2023/02/07 21:01:54;;;;;;;24.77;14.02;;;-4.60;99.90;;;;;;6126575;23;20042;-89
2023/02/07 21:04:46;;;;;;;;;;;-4.70;99.90;;;;;;6106125;23;20026;-90
2023/02/07 21:07:36;;;;;;;21.25;12.18;;;-4.70;99.90;;;;;;6105901;23;19917;-89
2023/02/07 21:10:24;;;;;;;27.08;13.70;;;-4.70;99.90;;;;;;6107982;23;20037;-89
2023/02/07 21:13:15;;;;;;;28.42;14.20;;;-4.70;1.00;;;;;;6114032;23;20455;-90
2023/02/07 21:16:06;;;;;;;26.00;13.68;;;-4.80;1.00;;;;;;6132120;23;20022;-88
2023/02/07 21:18:56;;;;;;;27.15;12.63;;;-4.80;1.00;;;;;;6112434;23;20022;-90
2023/02/07 21:21:46;;;;;;;26.25;13.98;;;-4.80;1.00;;;;;;6110270;23;20054;-88
2023/02/07 21:24:34;;;;;;;28.85;13.50;;;-4.90;1.00;;;;;;6127408;23;20029;-90
2023/02/07 21:27:22;;;;;;;25.77;12.60;;;-4.80;1.00;;;;;;6127571;23;20181;-90